Terminal Aerodrome Forecast
Issued by NWS Wilmington, OH

Current Version | Previous Version | Graphics & Text | Print | Product List | Glossary On
Versions: 1 2 3 4 5 6 7 8 9 10 11 12 13 14 15 16 17 18 19 20 21
000
FTUS41 KILN 201408 AAA
TAFDAY
TAF AMD
KDAY 201408Z 2014/2112 08007KT P6SM OVC007
     FM201500 12007KT P6SM BKN012
     FM201600 14007KT P6SM SCT015 SCT045
     FM201900 15007KT P6SM VCSH BKN050
      TEMPO 2020/2022 4SM -TSRA BR BKN030CB OVC050
     FM210500 16006KT P6SM VCSH SCT050 BKN100
     FM211100 17006KT P6SM -SHRA VCTS OVC028CB=

USA.gov is the U.S. government's official web portal to all federal, state and local government web resources and services.